Time;durP1;ratioP1;P1;durP2;ratioP2;P2;SDS_P1;SDS_P2;PMS_P1;PMS_P2;Temp;Humidity;BMP_temperature;BMP_pressure;BME280_temperature;BME280_humidity;BME280_pressure;Samples;Min_cycle;Max_cycle;Signal;HPM_P1;HPM_P2
2023/03/29 00:01:32;;;;;;;9.98;9.38;;;;;;;;;;4995615;28;20125;-56
2023/03/29 00:03:59;;;;;;;10.75;10.05;;;;;;;;;;4995449;28;20049;-56
2023/03/29 00:06:24;;;;;;;11.57;10.88;;;;;;;;;;4996332;28;20530;-56
2023/03/29 00:08:50;;;;;;;10.40;9.80;;;;;;;;;;4999360;28;20034;-56
2023/03/29 00:11:16;;;;;;;10.10;9.50;;;;;;;;;;4996372;28;20030;-56
2023/03/29 00:13:42;;;;;;;10.48;9.88;;;;;;;;;;4994606;28;20041;-58
2023/03/29 00:16:08;;;;;;;10.95;10.25;;;;;;;;;;4995726;28;20040;-56
2023/03/29 00:18:33;;;;;;;11.38;10.68;;;;;;;;;;4998181;28;20460;-57
2023/03/29 00:20:59;;;;;;;11.77;11.05;;;;;;;;;;4992831;28;20137;-56
2023/03/29 00:23:24;;;;;;;10.50;9.90;;;;;;;;;;4998729;28;20037;-56
2023/03/29 00:25:52;;;;;;;9.70;9.10;;;;;;;;;;4995956;28;20030;-55
2023/03/29 00:28:18;;;;;;;12.35;11.18;;;;;;;;;;4995490;28;20118;-54
2023/03/29 00:30:45;;;;;;;10.10;9.50;;;;;;;;;;4993190;28;20050;-56
2023/03/29 00:33:10;;;;;;;10.30;9.70;;;;;;;;;;4994771;28;20030;-56
2023/03/29 00:35:38;;;;;;;11.05;10.35;;;;;;;;;;4994674;28;20041;-56
2023/03/29 00:38:05;;;;;;;10.93;10.23;;;;;;;;;;4995723;28;20029;-54
2023/03/29 00:40:31;;;;;;;10.63;10.02;;;;;;;;;;4995749;28;20038;-55
2023/03/29 00:42:57;;;;;;;10.23;9.63;;;;;;;;;;4994908;28;20041;-55
2023/03/29 00:45:29;;;;;;;10.95;10.25;;;;;;;;;;4993813;28;20034;-55
2023/03/29 00:47:58;;;;;;;10.25;9.65;;;;;;;;;;4992356;28;20044;-56
2023/03/29 00:50:39;;;;;;;11.35;10.65;;;;;;;;;;4992970;28;20060;-55
2023/03/29 00:53:07;;;;;;;11.30;10.60;;;;;;;;;;4994952;28;20637;-56
2023/03/29 00:55:56;;;;;;;10.68;10.07;;;;;;;;;;4999074;28;20289;-55
2023/03/29 00:58:32;;;;;;;11.93;11.23;;;;;;;;;;4993091;28;20437;-56
2023/03/29 01:01:10;;;;;;;11.73;10.95;;;;;;;;;;4994675;28;20042;-54
2023/03/29 01:03:46;;;;;;;11.95;11.25;;;;;;;;;;4994865;28;20030;-55
2023/03/29 01:06:14;;;;;;;10.32;9.65;;;;;;;;;;5009040;28;20041;-55
2023/03/29 01:08:46;;;;;;;11.00;10.30;;;;;;;;;;4993039;28;20042;-56
2023/03/29 01:11:21;;;;;;;11.27;10.57;;;;;;;;;;5008779;28;20133;-55
2023/03/29 01:14:02;;;;;;;10.85;10.15;;;;;;;;;;4997633;28;20097;-55
2023/03/29 01:16:31;;;;;;;11.85;11.07;;;;;;;;;;4995744;28;20034;-56
2023/03/29 01:18:57;;;;;;;11.02;10.32;;;;;;;;;;4992950;28;20262;-54
2023/03/29 01:21:23;;;;;;;10.88;10.23;;;;;;;;;;4995396;28;20045;-55
2023/03/29 01:24:23;;;;;;;10.98;10.27;;;;;;;;;;4992508;28;20038;-55
2023/03/29 01:27:28;;;;;;;10.90;10.20;;;;;;;;;;4994965;28;20490;-55
2023/03/29 01:29:59;;;;;;;11.20;10.50;;;;;;;;;;4992118;28;20532;-55
2023/03/29 01:32:33;;;;;;;9.65;9.05;;;;;;;;;;4993338;28;20092;-55
2023/03/29 01:35:09;;;;;;;9.75;9.15;;;;;;;;;;4992120;28;20038;-55
2023/03/29 01:38:00;;;;;;;9.73;9.13;;;;;;;;;;4995685;28;20030;-55
2023/03/29 01:40:27;;;;;;;10.85;10.20;;;;;;;;;;4994119;28;20450;-56
2023/03/29 01:43:01;;;;;;;9.68;9.07;;;;;;;;;;4995536;28;20037;-54
2023/03/29 01:45:40;;;;;;;9.75;9.15;;;;;;;;;;4992415;28;20088;-53
2023/03/29 01:48:23;;;;;;;9.50;8.90;;;;;;;;;;4995667;28;20117;-55
2023/03/29 01:50:53;;;;;;;9.88;9.15;;;;;;;;;;4992782;28;20038;-56
2023/03/29 01:53:38;;;;;;;9.27;8.68;;;;;;;;;;4994924;28;20097;-55
2023/03/29 01:56:18;;;;;;;9.60;9.00;;;;;;;;;;4993739;28;20022;-56
2023/03/29 01:58:47;;;;;;;9.13;8.52;;;;;;;;;;4993404;28;20348;-56
2023/03/29 02:01:17;;;;;;;10.15;9.55;;;;;;;;;;4994545;28;20538;-56
2023/03/29 02:03:48;;;;;;;9.75;9.15;;;;;;;;;;4994076;28;20044;-55
2023/03/29 02:06:17;;;;;;;10.30;9.63;;;;;;;;;;4990783;28;20533;-55
2023/03/29 02:08:44;;;;;;;9.95;9.35;;;;;;;;;;4993526;28;20080;-55
2023/03/29 02:11:10;;;;;;;9.25;8.65;;;;;;;;;;4993299;28;20121;-54
2023/03/29 02:13:35;;;;;;;9.80;9.20;;;;;;;;;;4991367;28;20551;-55
2023/03/29 02:16:10;;;;;;;9.65;9.05;;;;;;;;;;4999789;28;20049;-55
2023/03/29 02:18:38;;;;;;;9.95;9.35;;;;;;;;;;4993456;28;20485;-55
2023/03/29 02:21:04;;;;;;;9.63;9.02;;;;;;;;;;4990504;28;20045;-55
2023/03/29 02:23:34;;;;;;;10.10;9.50;;;;;;;;;;4988374;28;20026;-55
2023/03/29 02:26:00;;;;;;;10.00;9.40;;;;;;;;;;4993233;28;20041;-56
2023/03/29 02:28:27;;;;;;;9.10;8.50;;;;;;;;;;4990984;28;20064;-56
2023/03/29 02:31:01;;;;;;;9.15;8.55;;;;;;;;;;4990372;28;20061;-55
2023/03/29 02:33:38;;;;;;;10.20;9.50;;;;;;;;;;4994558;28;20057;-58
2023/03/29 02:36:18;;;;;;;8.80;8.20;;;;;;;;;;4993303;28;20033;-56
2023/03/29 02:38:43;;;;;;;8.98;8.38;;;;;;;;;;4990368;28;20137;-56
2023/03/29 02:41:09;;;;;;;9.10;8.50;;;;;;;;;;4991349;28;20146;-56
2023/03/29 02:43:38;;;;;;;10.82;10.13;;;;;;;;;;4993090;28;20111;-56
2023/03/29 02:46:06;;;;;;;9.80;9.20;;;;;;;;;;5001002;28;20042;-56
2023/03/29 02:48:33;;;;;;;9.40;8.80;;;;;;;;;;4994257;28;20037;-56
2023/03/29 02:51:06;;;;;;;8.73;8.18;;;;;;;;;;4994051;28;20467;-56
2023/03/29 02:53:41;;;;;;;10.18;9.52;;;;;;;;;;4991020;28;20041;-56
2023/03/29 02:56:07;;;;;;;10.75;10.00;;;;;;;;;;4994104;28;20033;-56
2023/03/29 02:58:32;;;;;;;9.98;9.27;;;;;;;;;;4991238;28;20483;-56
2023/03/29 03:01:00;;;;;;;9.43;8.82;;;;;;;;;;4994842;28;20042;-56
2023/03/29 03:03:26;;;;;;;9.35;8.75;;;;;;;;;;4998887;28;20034;-56
2023/03/29 03:05:51;;;;;;;9.30;8.70;;;;;;;;;;4992787;28;20049;-56
2023/03/29 03:08:17;;;;;;;8.98;8.38;;;;;;;;;;4990151;28;20144;-56
2023/03/29 03:10:43;;;;;;;9.60;9.00;;;;;;;;;;4999407;28;20042;-56
2023/03/29 03:13:08;;;;;;;8.90;8.30;;;;;;;;;;4992133;28;20120;-56
2023/03/29 03:15:34;;;;;;;9.75;9.15;;;;;;;;;;4991392;28;20037;-56
2023/03/29 03:18:02;;;;;;;9.23;8.63;;;;;;;;;;4989627;28;20120;-56
2023/03/29 03:20:28;;;;;;;9.00;8.40;;;;;;;;;;4991571;28;20039;-56
2023/03/29 03:22:56;;;;;;;9.63;9.02;;;;;;;;;;4992094;28;20034;-56
2023/03/29 03:25:22;;;;;;;10.23;9.63;;;;;;;;;;4994946;28;20030;-56
2023/03/29 03:27:48;;;;;;;9.27;8.68;;;;;;;;;;4993125;28;20108;-56
2023/03/29 03:30:15;;;;;;;9.07;8.48;;;;;;;;;;4994220;28;20045;-56
2023/03/29 03:32:40;;;;;;;9.35;8.75;;;;;;;;;;4991778;28;20030;-56
2023/03/29 03:35:06;;;;;;;9.57;8.75;;;;;;;;;;4990032;28;20362;-55
2023/03/29 03:37:32;;;;;;;10.20;9.50;;;;;;;;;;4989307;28;20107;-55
2023/03/29 03:39:57;;;;;;;9.85;9.25;;;;;;;;;;4995780;28;20050;-55
2023/03/29 03:42:23;;;;;;;9.43;8.82;;;;;;;;;;4996817;28;20068;-56
2023/03/29 03:44:48;;;;;;;9.32;8.73;;;;;;;;;;4993053;28;20046;-55
2023/03/29 03:47:14;;;;;;;10.25;9.65;;;;;;;;;;4993567;28;20419;-56
2023/03/29 03:49:40;;;;;;;9.00;8.40;;;;;;;;;;4994527;28;20026;-56
2023/03/29 03:52:06;;;;;;;10.50;9.80;;;;;;;;;;4992996;28;20049;-56
2023/03/29 03:54:32;;;;;;;10.20;9.57;;;;;;;;;;4997912;28;20038;-56
2023/03/29 03:56:58;;;;;;;9.50;8.90;;;;;;;;;;4995797;28;20057;-56
2023/03/29 03:59:23;;;;;;;9.40;8.80;;;;;;;;;;4995756;28;20213;-56
2023/03/29 04:01:49;;;;;;;10.05;9.35;;;;;;;;;;5000982;28;20407;-56
2023/03/29 04:04:15;;;;;;;9.82;9.23;;;;;;;;;;4992216;28;20066;-56
2023/03/29 04:06:41;;;;;;;8.95;8.35;;;;;;;;;;4992858;28;20034;-55
2023/03/29 04:09:08;;;;;;;9.88;9.27;;;;;;;;;;4991915;28;20606;-55
2023/03/29 04:11:33;;;;;;;10.23;9.52;;;;;;;;;;4995558;28;20036;-56
2023/03/29 04:13:59;;;;;;;9.70;9.10;;;;;;;;;;4995346;28;20034;-56
2023/03/29 04:16:25;;;;;;;9.73;9.13;;;;;;;;;;4995033;28;20039;-58
2023/03/29 04:18:50;;;;;;;8.68;8.07;;;;;;;;;;4995933;28;20415;-56
2023/03/29 04:21:16;;;;;;;9.35;8.75;;;;;;;;;;4993416;28;20038;-58
2023/03/29 04:23:45;;;;;;;9.10;8.50;;;;;;;;;;4995771;28;20080;-56
2023/03/29 04:26:12;;;;;;;10.05;9.43;;;;;;;;;;4994887;28;20027;-55
2023/03/29 04:28:38;;;;;;;10.50;9.85;;;;;;;;;;4993835;28;20125;-56
2023/03/29 04:31:04;;;;;;;10.65;9.85;;;;;;;;;;4996202;28;20113;-56
2023/03/29 04:33:29;;;;;;;9.63;9.02;;;;;;;;;;4994857;28;20731;-56
2023/03/29 04:35:55;;;;;;;9.48;8.88;;;;;;;;;;4997303;28;20065;-56
2023/03/29 04:38:23;;;;;;;9.32;8.73;;;;;;;;;;4994311;28;20058;-55
2023/03/29 04:40:49;;;;;;;10.30;9.70;;;;;;;;;;5003151;28;20105;-56
2023/03/29 04:43:15;;;;;;;10.23;9.63;;;;;;;;;;4993510;28;20516;-56
2023/03/29 04:45:40;;;;;;;10.25;9.60;;;;;;;;;;4993926;28;20100;-56
2023/03/29 04:48:06;;;;;;;9.80;9.20;;;;;;;;;;4998549;28;20480;-57
2023/03/29 04:50:31;;;;;;;9.82;9.23;;;;;;;;;;4992381;28;20048;-58
2023/03/29 04:52:59;;;;;;;9.57;8.98;;;;;;;;;;4994274;28;20034;-56
2023/03/29 04:55:24;;;;;;;9.43;8.82;;;;;;;;;;4994442;28;20085;-55
2023/03/29 04:57:50;;;;;;;9.23;8.63;;;;;;;;;;4995495;28;20412;-56
2023/03/29 05:00:16;;;;;;;9.60;9.00;;;;;;;;;;4993861;28;20435;-57
2023/03/29 05:02:43;;;;;;;10.15;9.55;;;;;;;;;;4992880;28;20069;-56
2023/03/29 05:05:09;;;;;;;10.60;9.85;;;;;;;;;;4995500;28;20364;-56
2023/03/29 05:07:35;;;;;;;9.82;9.23;;;;;;;;;;4995805;28;20053;-56
2023/03/29 05:10:00;;;;;;;9.93;9.32;;;;;;;;;;4993772;28;20472;-56
2023/03/29 05:12:26;;;;;;;10.48;9.70;;;;;;;;;;4993482;28;20674;-56
2023/03/29 05:14:52;;;;;;;10.95;10.25;;;;;;;;;;4997460;28;20483;-56
2023/03/29 05:17:17;;;;;;;9.48;8.88;;;;;;;;;;4997486;28;20495;-54
2023/03/29 05:19:42;;;;;;;10.50;9.70;;;;;;;;;;4995054;28;20495;-53
2023/03/29 05:22:08;;;;;;;9.82;9.23;;;;;;;;;;4994600;28;20029;-53
2023/03/29 05:24:34;;;;;;;10.68;9.98;;;;;;;;;;4995219;28;20033;-54
2023/03/29 05:26:59;;;;;;;10.15;9.45;;;;;;;;;;4994267;28;20045;-53
2023/03/29 05:29:25;;;;;;;9.40;8.80;;;;;;;;;;4998856;28;20120;-52
2023/03/29 05:31:51;;;;;;;9.45;8.85;;;;;;;;;;4995367;28;20041;-52
2023/03/29 05:34:17;;;;;;;10.70;10.00;;;;;;;;;;4993970;28;20046;-52
2023/03/29 05:36:44;;;;;;;10.70;10.00;;;;;;;;;;4993416;28;20129;-52
2023/03/29 05:39:09;;;;;;;12.85;11.70;;;;;;;;;;4994357;28;20384;-53
2023/03/29 05:41:35;;;;;;;10.70;10.00;;;;;;;;;;4995416;28;20034;-54
2023/03/29 05:44:01;;;;;;;9.70;9.10;;;;;;;;;;4992864;28;20045;-54
2023/03/29 05:46:26;;;;;;;8.80;8.20;;;;;;;;;;4995332;28;20033;-53
2023/03/29 05:48:52;;;;;;;9.68;8.98;;;;;;;;;;4992619;28;20038;-52
2023/03/29 05:51:18;;;;;;;9.68;9.07;;;;;;;;;;4990716;28;20034;-53
2023/03/29 05:53:44;;;;;;;10.68;9.98;;;;;;;;;;4991245;28;20034;-52
2023/03/29 05:56:10;;;;;;;10.48;9.85;;;;;;;;;;4992942;28;20495;-52
2023/03/29 05:58:37;;;;;;;9.25;8.65;;;;;;;;;;4994048;28;20034;-49
2023/03/29 06:01:03;;;;;;;11.20;10.50;;;;;;;;;;4983843;28;20069;-50
2023/03/29 06:03:28;;;;;;;10.23;9.63;;;;;;;;;;4995851;28;20045;-59
2023/03/29 06:06:01;;;;;;;8.80;8.20;;;;;;;;;;4996250;28;20049;-52
2023/03/29 06:08:27;;;;;;;9.13;8.52;;;;;;;;;;4994995;28;20057;-56
2023/03/29 06:11:00;;;;;;;11.15;10.45;;;;;;;;;;4994271;28;20069;-56
2023/03/29 06:13:27;;;;;;;9.35;8.65;;;;;;;;;;4994888;28;20042;-58
2023/03/29 06:15:53;;;;;;;10.15;9.35;;;;;;;;;;4993932;28;20057;-53
2023/03/29 06:18:19;;;;;;;9.30;8.70;;;;;;;;;;4994096;28;20033;-50
2023/03/29 06:20:49;;;;;;;10.52;9.93;;;;;;;;;;4994235;28;20057;-51
2023/03/29 06:23:14;;;;;;;8.93;8.32;;;;;;;;;;4994458;28;20034;-52
2023/03/29 06:25:39;;;;;;;10.65;9.95;;;;;;;;;;4996665;28;20033;-51
2023/03/29 06:28:05;;;;;;;9.38;8.77;;;;;;;;;;4990441;28;20066;-51
2023/03/29 06:30:30;;;;;;;9.93;9.25;;;;;;;;;;4993788;28;20423;-53
2023/03/29 06:32:58;;;;;;;9.13;8.52;;;;;;;;;;4995240;28;20041;-50
2023/03/29 06:35:23;;;;;;;10.48;9.68;;;;;;;;;;4992387;28;20121;-55
2023/03/29 06:37:49;;;;;;;10.15;9.50;;;;;;;;;;4995807;28;20104;-56
2023/03/29 06:40:17;;;;;;;9.68;9.07;;;;;;;;;;4989860;28;20092;-57
2023/03/29 06:42:43;;;;;;;9.30;8.70;;;;;;;;;;5000530;28;20120;-63
2023/03/29 06:45:09;;;;;;;10.57;9.95;;;;;;;;;;4995815;28;20469;-58
2023/03/29 06:47:35;;;;;;;10.98;10.27;;;;;;;;;;4991161;28;20044;-57
2023/03/29 06:50:00;;;;;;;10.75;9.95;;;;;;;;;;4993436;28;20113;-62
2023/03/29 06:52:26;;;;;;;10.45;9.75;;;;;;;;;;4993603;28;20120;-61
2023/03/29 06:54:51;;;;;;;9.63;9.02;;;;;;;;;;4993822;28;20117;-57
2023/03/29 06:57:17;;;;;;;10.68;9.88;;;;;;;;;;4991993;28;20042;-58
2023/03/29 06:59:42;;;;;;;9.27;8.68;;;;;;;;;;5005178;28;20080;-58
2023/03/29 07:02:11;;;;;;;10.23;9.52;;;;;;;;;;4998655;28;20037;-57
2023/03/29 07:04:37;;;;;;;10.98;10.18;;;;;;;;;;4994352;28;20463;-58
2023/03/29 07:07:02;;;;;;;9.70;9.10;;;;;;;;;;4999939;28;20110;-55
2023/03/29 07:09:29;;;;;;;10.15;9.52;;;;;;;;;;4993174;28;20553;-54
2023/03/29 07:11:58;;;;;;;9.93;9.23;;;;;;;;;;4994530;28;20091;-57
2023/03/29 07:14:27;;;;;;;10.77;10.07;;;;;;;;;;4998621;28;20045;-57
2023/03/29 07:16:53;;;;;;;9.88;9.07;;;;;;;;;;4998764;28;20030;-57
2023/03/29 07:19:21;;;;;;;10.35;9.65;;;;;;;;;;4996970;28;20030;-56
2023/03/29 07:21:47;;;;;;;10.55;9.77;;;;;;;;;;4998081;28;20034;-58
2023/03/29 07:24:12;;;;;;;9.48;8.77;;;;;;;;;;4997598;28;20030;-58
2023/03/29 07:26:38;;;;;;;9.77;9.18;;;;;;;;;;4996702;28;20046;-57
2023/03/29 07:29:03;;;;;;;11.23;10.20;;;;;;;;;;4995776;28;20033;-57
2023/03/29 07:31:29;;;;;;;10.60;9.43;;;;;;;;;;4997511;28;20138;-57
2023/03/29 07:33:55;;;;;;;10.30;9.60;;;;;;;;;;5003102;28;20043;-51
2023/03/29 07:36:20;;;;;;;10.95;10.15;;;;;;;;;;4993209;28;20030;-54
2023/03/29 07:38:47;;;;;;;10.77;10.07;;;;;;;;;;4996315;28;20390;-54
2023/03/29 07:41:13;;;;;;;11.27;10.57;;;;;;;;;;4993853;28;20038;-54
2023/03/29 07:43:38;;;;;;;10.90;10.10;;;;;;;;;;4996277;28;20444;-54
2023/03/29 07:46:05;;;;;;;9.50;8.90;;;;;;;;;;4996583;28;20045;-53
2023/03/29 07:48:32;;;;;;;9.90;9.30;;;;;;;;;;4997066;28;20120;-54
2023/03/29 07:50:58;;;;;;;11.15;10.45;;;;;;;;;;4994889;28;20058;-53
2023/03/29 07:53:23;;;;;;;10.55;9.85;;;;;;;;;;4996357;28;20070;-54
2023/03/29 07:55:51;;;;;;;10.70;10.00;;;;;;;;;;4997911;28;20077;-52
2023/03/29 07:58:16;;;;;;;10.25;9.55;;;;;;;;;;4997412;28;20049;-52
2023/03/29 08:00:42;;;;;;;11.43;10.73;;;;;;;;;;4994315;28;20594;-58
2023/03/29 08:03:13;;;;;;;12.35;11.57;;;;;;;;;;4993626;28;20621;-53
2023/03/29 08:05:39;;;;;;;13.10;12.30;;;;;;;;;;4994988;28;20483;-54
2023/03/29 08:08:05;;;;;;;12.98;12.18;;;;;;;;;;4998400;28;20030;-53
2023/03/29 08:10:33;;;;;;;11.82;11.13;;;;;;;;;;4996956;28;20314;-53
2023/03/29 08:12:59;;;;;;;12.65;11.65;;;;;;;;;;4996420;28;20077;-53
2023/03/29 08:15:26;;;;;;;12.77;11.93;;;;;;;;;;4995937;28;20411;-54
2023/03/29 08:17:52;;;;;;;12.32;11.63;;;;;;;;;;4997973;28;20030;-54
2023/03/29 08:20:18;;;;;;;12.85;12.05;;;;;;;;;;4992844;28;20048;-55
2023/03/29 08:22:43;;;;;;;12.38;11.68;;;;;;;;;;4993881;28;20504;-52
2023/03/29 08:25:10;;;;;;;11.85;11.15;;;;;;;;;;4990015;28;20097;-52
2023/03/29 08:27:36;;;;;;;11.93;11.23;;;;;;;;;;4992076;28;20038;-51
2023/03/29 08:30:04;;;;;;;11.40;10.70;;;;;;;;;;4993296;28;20040;-52
2023/03/29 08:32:29;;;;;;;11.40;10.70;;;;;;;;;;4994730;28;20116;-56
2023/03/29 08:34:55;;;;;;;11.23;10.52;;;;;;;;;;4995652;28;20213;-54
2023/03/29 08:37:20;;;;;;;10.70;10.00;;;;;;;;;;4993731;28;20057;-58
2023/03/29 08:39:46;;;;;;;12.07;11.38;;;;;;;;;;4993829;28;20547;-58
2023/03/29 08:42:22;;;;;;;9.95;9.35;;;;;;;;;;4995532;28;20048;-58
2023/03/29 08:45:06;;;;;;;10.75;10.13;;;;;;;;;;4995728;28;20037;-58
2023/03/29 08:47:42;;;;;;;11.30;10.57;;;;;;;;;;4995139;28;20109;-58
2023/03/29 08:50:11;;;;;;;10.65;9.95;;;;;;;;;;4993638;28;20049;-58
2023/03/29 08:52:45;;;;;;;11.20;10.50;;;;;;;;;;4992342;28;20038;-59
2023/03/29 08:55:34;;;;;;;10.30;9.70;;;;;;;;;;4993932;28;20038;-58
2023/03/29 08:58:01;;;;;;;10.98;10.27;;;;;;;;;;4991095;28;20042;-54
2023/03/29 09:00:40;;;;;;;10.52;9.82;;;;;;;;;;4992305;28;20041;-54
2023/03/29 09:03:13;;;;;;;11.10;10.32;;;;;;;;;;4994938;28;20052;-58
2023/03/29 09:05:43;;;;;;;10.63;9.93;;;;;;;;;;4997362;28;20033;-58
2023/03/29 09:08:15;;;;;;;9.80;9.20;;;;;;;;;;4993122;28;20041;-57
2023/03/29 09:11:22;;;;;;;12.00;11.20;;;;;;;;;;4993467;28;20472;-58
2023/03/29 09:14:08;;;;;;;11.07;10.38;;;;;;;;;;4993998;28;20129;-58
2023/03/29 09:16:55;;;;;;;10.60;9.88;;;;;;;;;;4995001;28;20030;-58
2023/03/29 09:19:36;;;;;;;11.10;10.40;;;;;;;;;;4994731;28;20037;-58
2023/03/29 09:22:23;;;;;;;11.93;11.13;;;;;;;;;;4995475;28;20045;-58
2023/03/29 09:25:23;;;;;;;10.38;9.77;;;;;;;;;;4997057;28;20030;-57
2023/03/29 09:28:12;;;;;;;9.88;9.27;;;;;;;;;;4993676;28;20030;-58
2023/03/29 09:30:48;;;;;;;11.80;11.07;;;;;;;;;;4991304;28;20574;-57
2023/03/29 09:33:30;;;;;;;11.75;10.98;;;;;;;;;;4992174;28;20046;-58
2023/03/29 09:36:09;;;;;;;11.18;10.48;;;;;;;;;;4991976;28;20037;-58
2023/03/29 09:38:40;;;;;;;11.52;10.73;;;;;;;;;;4991754;28;20045;-58
2023/03/29 09:41:28;;;;;;;11.30;10.60;;;;;;;;;;4995955;28;20476;-58
2023/03/29 09:43:57;;;;;;;11.25;10.55;;;;;;;;;;4982481;28;20127;-57
2023/03/29 09:46:33;;;;;;;11.65;10.85;;;;;;;;;;4994532;28;20077;-57
2023/03/29 09:49:00;;;;;;;12.35;11.45;;;;;;;;;;4992138;28;20495;-58
2023/03/29 09:51:28;;;;;;;11.40;10.70;;;;;;;;;;4997090;28;20038;-59
2023/03/29 09:53:55;;;;;;;11.50;10.80;;;;;;;;;;4993709;28;20034;-55
2023/03/29 09:56:21;;;;;;;12.27;11.25;;;;;;;;;;4994637;28;20173;-57
2023/03/29 09:58:46;;;;;;;10.95;10.25;;;;;;;;;;4991313;28;20550;-58
2023/03/29 10:01:16;;;;;;;11.30;10.35;;;;;;;;;;4991229;28;20507;-58
2023/03/29 10:03:48;;;;;;;11.15;10.30;;;;;;;;;;4994460;28;20026;-60
2023/03/29 10:06:15;;;;;;;11.85;11.15;;;;;;;;;;4994609;28;20042;-58
2023/03/29 10:08:46;;;;;;;11.85;11.15;;;;;;;;;;4992681;28;20091;-58
2023/03/29 10:11:35;;;;;;;11.63;10.93;;;;;;;;;;4992288;28;20061;-58
2023/03/29 10:14:11;;;;;;;11.60;10.90;;;;;;;;;;4994372;28;20053;-59
2023/03/29 10:16:41;;;;;;;11.73;11.02;;;;;;;;;;4992347;28;20044;-59
2023/03/29 10:19:25;;;;;;;11.05;10.35;;;;;;;;;;4989475;28;20046;-59
2023/03/29 10:21:53;;;;;;;11.52;10.75;;;;;;;;;;4992487;28;20049;-59
2023/03/29 10:24:24;;;;;;;12.05;11.35;;;;;;;;;;4992487;28;20034;-58
2023/03/29 10:26:56;;;;;;;11.82;11.13;;;;;;;;;;4994357;28;20038;-57
2023/03/29 10:29:24;;;;;;;11.80;11.10;;;;;;;;;;4994315;28;20073;-58
2023/03/29 10:31:50;;;;;;;10.65;9.95;;;;;;;;;;4994215;28;20388;-58
2023/03/29 10:34:17;;;;;;;11.73;11.02;;;;;;;;;;4994807;28;20046;-57
2023/03/29 10:36:58;;;;;;;11.20;10.50;;;;;;;;;;4995423;28;20045;-58
2023/03/29 10:39:26;;;;;;;;;;;;;;;;;;4993393;28;20034;-58
2023/03/29 10:41:52;;;;;;;10.98;9.90;;;;;;;;;;4993711;28;19921;-57
2023/03/29 10:44:26;;;;;;;11.32;10.65;;;;;;;;;;4994828;28;20096;-59
2023/03/29 10:46:52;;;;;;;11.13;10.43;;;;;;;;;;4995502;28;20034;-57
2023/03/29 10:49:20;;;;;;;10.70;10.00;;;;;;;;;;4996229;28;20084;-58
2023/03/29 10:51:50;;;;;;;11.13;10.38;;;;;;;;;;4998261;28;20030;-59
2023/03/29 10:54:20;;;;;;;12.38;11.65;;;;;;;;;;4994987;28;20057;-59
2023/03/29 10:56:53;;;;;;;11.60;10.90;;;;;;;;;;4997522;28;20354;-59
2023/03/29 10:59:27;;;;;;;13.25;12.45;;;;;;;;;;4993635;28;20080;-58
2023/03/29 11:02:11;;;;;;;16.58;15.57;;;;;;;;;;4996661;28;20045;-58
2023/03/29 11:04:55;;;;;;;18.55;17.45;;;;;;;;;;4994334;28;20030;-59
2023/03/29 11:07:40;;;;;;;19.55;18.45;;;;;;;;;;5004209;28;20149;-59
2023/03/29 11:10:24;;;;;;;15.63;14.52;;;;;;;;;;4998067;28;20125;-58
2023/03/29 11:13:11;;;;;;;16.45;15.55;;;;;;;;;;4995651;28;20034;-58
2023/03/29 11:16:03;;;;;;;14.93;14.07;;;;;;;;;;4991770;28;20409;-59
2023/03/29 11:18:54;;;;;;;12.95;12.15;;;;;;;;;;4998700;28;20041;-57
2023/03/29 11:21:41;;;;;;;13.25;12.45;;;;;;;;;;4994830;28;20116;-59
2023/03/29 11:24:45;;;;;;;13.20;12.40;;;;;;;;;;4998667;28;20061;-58
2023/03/29 11:27:26;;;;;;;12.43;11.73;;;;;;;;;;4999012;28;20052;-58
2023/03/29 11:30:27;;;;;;;13.88;13.07;;;;;;;;;;4998004;28;20044;-59
2023/03/29 11:33:25;;;;;;;14.15;13.25;;;;;;;;;;4995867;28;20068;-58
2023/03/29 11:36:03;;;;;;;13.77;12.98;;;;;;;;;;4992062;28;20477;-59
2023/03/29 11:38:38;;;;;;;13.77;12.88;;;;;;;;;;4996434;28;20077;-59
2023/03/29 11:41:12;;;;;;;14.40;13.57;;;;;;;;;;4997106;28;20034;-59
2023/03/29 11:43:53;;;;;;;12.38;11.68;;;;;;;;;;4994034;28;20137;-59
2023/03/29 11:46:30;;;;;;;14.25;13.35;;;;;;;;;;4996715;28;20605;-59
2023/03/29 11:49:01;;;;;;;13.20;12.40;;;;;;;;;;4993299;28;20088;-60
2023/03/29 11:51:58;;;;;;;13.15;12.35;;;;;;;;;;4995999;28;20057;-59
2023/03/29 11:54:33;;;;;;;13.85;13.05;;;;;;;;;;4987158;28;20058;-59
2023/03/29 11:57:17;;;;;;;13.55;12.75;;;;;;;;;;4996030;28;20037;-59
2023/03/29 12:00:11;;;;;;;13.27;12.48;;;;;;;;;;4997659;28;20782;-61
2023/03/29 12:02:45;;;;;;;11.95;11.25;;;;;;;;;;4992600;28;20042;-60
2023/03/29 12:05:18;;;;;;;12.63;11.82;;;;;;;;;;4996688;28;20453;-60
2023/03/29 12:07:55;;;;;;;12.43;11.63;;;;;;;;;;4995558;28;20279;-59
2023/03/29 12:10:26;;;;;;;13.57;12.68;;;;;;;;;;4996250;28;20046;-59
2023/03/29 12:12:59;;;;;;;13.10;12.30;;;;;;;;;;4994466;28;20081;-59
2023/03/29 12:15:30;;;;;;;12.13;11.43;;;;;;;;;;4994421;28;20044;-60
2023/03/29 12:18:01;;;;;;;12.93;12.13;;;;;;;;;;5008642;28;20042;-60
2023/03/29 12:20:34;;;;;;;12.63;11.65;;;;;;;;;;4995173;28;20749;-59
2023/03/29 12:23:00;;;;;;;12.13;11.43;;;;;;;;;;4996695;28;20407;-59
2023/03/29 12:25:32;;;;;;;12.85;12.05;;;;;;;;;;4995255;28;20046;-59
2023/03/29 12:28:32;;;;;;;11.82;11.13;;;;;;;;;;4995836;28;20040;-59
2023/03/29 12:31:09;;;;;;;11.60;10.90;;;;;;;;;;4997255;28;20481;-60
2023/03/29 12:33:47;;;;;;;13.75;12.65;;;;;;;;;;4999296;28;20096;-60
2023/03/29 12:36:32;;;;;;;13.68;12.27;;;;;;;;;;4998318;28;20042;-59
2023/03/29 12:38:57;;;;;;;12.20;11.50;;;;;;;;;;4993827;28;20038;-60
2023/03/29 12:41:23;;;;;;;12.43;11.63;;;;;;;;;;4992609;28;20558;-60
2023/03/29 12:43:49;;;;;;;11.95;11.25;;;;;;;;;;4996655;28;20034;-58
2023/03/29 12:46:18;;;;;;;12.13;11.43;;;;;;;;;;4996686;28;20109;-58
2023/03/29 12:48:47;;;;;;;12.18;11.48;;;;;;;;;;5008731;28;20038;-58
2023/03/29 12:51:17;;;;;;;12.93;11.68;;;;;;;;;;4997412;28;20074;-58
2023/03/29 12:53:45;;;;;;;13.10;12.20;;;;;;;;;;4994674;28;20349;-60
2023/03/29 12:56:18;;;;;;;12.25;11.50;;;;;;;;;;4993126;28;20038;-59
2023/03/29 12:59:12;;;;;;;11.98;11.27;;;;;;;;;;4991796;28;20038;-57
2023/03/29 13:01:40;;;;;;;12.63;11.70;;;;;;;;;;4983952;28;20057;-58
2023/03/29 13:04:13;;;;;;;13.52;12.73;;;;;;;;;;4996084;28;20363;-58
2023/03/29 13:06:47;;;;;;;13.55;12.65;;;;;;;;;;4993746;28;21695;-59
2023/03/29 13:09:23;;;;;;;12.88;12.13;;;;;;;;;;4995035;28;20042;-59
2023/03/29 13:12:13;;;;;;;12.20;11.50;;;;;;;;;;4989636;28;20031;-58
2023/03/29 13:14:42;;;;;;;13.77;12.98;;;;;;;;;;4977909;28;20463;-58
2023/03/29 13:17:19;;;;;;;12.63;11.93;;;;;;;;;;4992585;28;20054;-58
2023/03/29 13:20:01;;;;;;;12.32;11.63;;;;;;;;;;4993002;28;20534;-59
2023/03/29 13:22:54;;;;;;;13.40;12.60;;;;;;;;;;4997473;28;20557;-59
2023/03/29 13:25:22;;;;;;;13.52;12.73;;;;;;;;;;4970990;28;20084;-58
2023/03/29 13:28:25;;;;;;;12.75;11.98;;;;;;;;;;4994044;28;20644;-58
2023/03/29 13:31:03;;;;;;;12.63;11.82;;;;;;;;;;4993529;28;20082;-59
2023/03/29 13:34:05;;;;;;;12.30;11.57;;;;;;;;;;4993497;28;20113;-58
2023/03/29 13:36:45;;;;;;;13.63;12.68;;;;;;;;;;4994728;28;20536;-58
2023/03/29 13:39:22;;;;;;;12.93;12.13;;;;;;;;;;4994128;28;20070;-59
2023/03/29 13:41:50;;;;;;;11.90;11.20;;;;;;;;;;4997016;28;20030;-58
2023/03/29 13:44:33;;;;;;;12.50;11.80;;;;;;;;;;4992628;28;20048;-59
2023/03/29 13:47:04;;;;;;;13.98;13.15;;;;;;;;;;4993331;28;20416;-59
2023/03/29 13:49:32;;;;;;;15.88;14.88;;;;;;;;;;4991640;28;20065;-60
2023/03/29 13:52:11;;;;;;;14.20;13.25;;;;;;;;;;4995363;28;20033;-57
2023/03/29 13:54:44;;;;;;;15.13;14.07;;;;;;;;;;4993832;28;20711;-58
2023/03/29 13:57:16;;;;;;;14.80;14.00;;;;;;;;;;5007949;28;20025;-58
2023/03/29 14:00:00;;;;;;;12.98;12.18;;;;;;;;;;4991260;28;20153;-58
2023/03/29 14:02:42;;;;;;;13.07;12.27;;;;;;;;;;4993602;28;20045;-56
2023/03/29 14:05:12;;;;;;;15.48;14.57;;;;;;;;;;4996224;28;20164;-58
2023/03/29 14:07:42;;;;;;;12.32;11.63;;;;;;;;;;4995354;28;20033;-58
2023/03/29 14:10:13;;;;;;;12.85;12.10;;;;;;;;;;4994733;28;20590;-57
2023/03/29 14:12:38;;;;;;;14.15;13.35;;;;;;;;;;4992436;28;20376;-55
2023/03/29 14:15:05;;;;;;;13.40;12.60;;;;;;;;;;4994635;28;20038;-59
2023/03/29 14:17:31;;;;;;;13.77;12.98;;;;;;;;;;4994316;28;20034;-58
2023/03/29 14:19:59;;;;;;;20.25;19.15;;;;;;;;;;4994403;28;20037;-58
2023/03/29 14:22:31;;;;;;;20.35;19.05;;;;;;;;;;4989118;28;20615;-58
2023/03/29 14:25:00;;;;;;;20.77;19.58;;;;;;;;;;4989817;28;20100;-59
2023/03/29 14:27:29;;;;;;;15.40;14.50;;;;;;;;;;4990557;28;20084;-58
2023/03/29 14:29:54;;;;;;;18.52;17.33;;;;;;;;;;4993365;28;20042;-59
2023/03/29 14:32:28;;;;;;;16.33;15.38;;;;;;;;;;4991632;28;20403;-59
2023/03/29 14:34:53;;;;;;;16.00;14.90;;;;;;;;;;5011191;28;20038;-60
2023/03/29 14:37:25;;;;;;;15.07;14.23;;;;;;;;;;4993752;28;20116;-59
2023/03/29 14:39:51;;;;;;;16.08;15.18;;;;;;;;;;4996780;28;20184;-58
2023/03/29 14:42:20;;;;;;;15.82;14.93;;;;;;;;;;4993602;28;20121;-58
2023/03/29 14:44:47;;;;;;;15.15;14.25;;;;;;;;;;5010346;28;20364;-59
2023/03/29 14:47:20;;;;;;;14.30;13.50;;;;;;;;;;4994178;28;20747;-58
2023/03/29 14:49:45;;;;;;;25.67;12.43;;;;;;;;;;4990508;28;20355;-58